Terminal Aerodrome Forecast
Issued by NWS Jackson, MS

Home | Current Version | Previous Version | Text Only | Print | Product List | Glossary On
Versions: 1 2 3 4 5 6 7 8 9 10 11 12 13 14 15 16 17 18 19 20 21 22 23
000
FTUS44 KMEG 032343
TAFTUP
TAF
KTUP 032343Z 0400/0424 29007KT P6SM SCT035 BKN050
     FM040100 VRB03KT P6SM FEW060
     FM041500 30011G17KT P6SM SKC
     FM041800 32016G24KT P6SM FEW060
     FM042100 35015G22KT P6SM VCTS BKN040CB=

USA.gov is the U.S. government's official web portal to all federal, state and local government web resources and services.